createdAt,value
2022-11-29T02:18:03.402Z,3.03
2022-11-29T02:33:38.994Z,2.97
2022-11-29T02:48:37.274Z,2.94
2022-11-29T02:56:07.735Z,2.94
2022-11-29T02:59:49.662Z,2.96
2022-11-29T03:03:39.120Z,2.97
2022-11-29T03:10:48.459Z,2.93
2022-11-29T03:18:03.223Z,2.93
2022-11-29T03:21:33.356Z,2.94
2022-11-29T03:24:30.810Z,2.93
2022-11-29T03:27:53.648Z,2.95
2022-11-29T03:30:45.200Z,2.99
2022-11-29T03:34:00.264Z,2.99
2022-11-29T03:37:10.466Z,2.97
2022-11-29T03:40:11.637Z,2.98
2022-11-29T03:43:31.016Z,3.00
2022-11-29T03:46:35.599Z,3.01
2022-11-29T03:50:15.458Z,3.01
2022-11-29T03:53:52.959Z,3.02
2022-11-29T03:56:40.903Z,2.99
2022-11-29T04:00:04.655Z,3.01
2022-11-29T04:03:51.940Z,3.00
2022-11-29T04:07:01.064Z,2.98
2022-11-29T04:10:29.717Z,2.98
2022-11-29T04:13:42.194Z,2.95
2022-11-29T04:17:09.531Z,2.98
2022-11-29T04:20:22.787Z,3.00
2022-11-29T04:23:52.581Z,3.03
2022-11-29T04:26:59.131Z,3.03
2022-11-29T04:30:06.861Z,3.01
2022-11-29T04:33:30.280Z,3.01
2022-11-29T04:36:58.976Z,3.01
2022-11-29T04:40:07.344Z,3.01
2022-11-29T04:43:22.563Z,2.97
2022-11-29T04:50:15.888Z,3.01
2022-11-29T04:53:48.252Z,3.02
2022-11-29T06:01:01.846Z,3.29
2022-11-29T06:03:57.190Z,3.32
2022-11-29T06:06:43.437Z,3.33
2022-11-29T06:09:40.500Z,3.30
2022-11-29T06:12:21.399Z,3.30
2022-11-29T06:15:27.852Z,3.32
2022-11-29T06:18:50.485Z,3.33
2022-11-29T06:21:38.326Z,3.32
2022-11-29T06:25:20.845Z,3.31
2022-11-29T06:28:19.424Z,3.28
2022-11-29T06:31:16.213Z,3.30
2022-11-29T06:33:47.112Z,3.33
2022-11-29T06:36:46.925Z,3.38
2022-11-29T06:39:15.027Z,3.38
2022-11-29T06:41:42.860Z,3.36
2022-11-29T06:44:11.437Z,3.35
2022-11-29T06:46:45.506Z,3.34
2022-11-29T06:49:49.022Z,3.36
2022-11-29T06:52:29.773Z,3.40
2022-11-29T06:55:27.299Z,3.43
2022-11-29T06:58:19.743Z,3.44
2022-11-29T07:01:36.859Z,3.45
2022-11-29T07:05:00.530Z,3.51
2022-11-29T07:07:28.740Z,3.52
2022-11-29T07:10:00.988Z,3.54
2022-11-29T07:12:29.053Z,3.58
2022-11-29T07:14:57.547Z,3.64
2022-11-29T07:17:54.086Z,3.70
2022-11-29T07:20:56.661Z,3.73
2022-11-29T07:23:42.027Z,3.76
2022-11-29T07:26:30.688Z,3.76
2022-11-29T07:29:16.987Z,3.79
2022-11-29T07:32:14.657Z,3.78
2022-11-29T07:34:56.237Z,3.82
2022-11-29T07:37:30.258Z,3.87
2022-11-29T07:40:19.517Z,3.92
2022-11-29T07:43:29.177Z,4.01
2022-11-29T07:45:57.239Z,4.14
2022-11-29T07:48:24.697Z,4.19
2022-11-29T07:50:52.661Z,4.26
2022-11-29T07:53:23.227Z,4.30
2022-11-29T07:55:50.759Z,4.33
2022-11-29T07:58:18.528Z,4.35
2022-11-29T08:00:46.762Z,4.37
2022-11-29T08:03:14.473Z,4.40
2022-11-29T08:05:47.187Z,4.39
2022-11-29T08:08:15.009Z,4.41
2022-11-29T08:10:42.791Z,4.43
2022-11-29T08:13:10.223Z,4.49
2022-11-29T08:15:45.137Z,4.56
2022-11-29T08:18:13.655Z,4.64
2022-11-29T08:20:42.594Z,4.67
2022-11-29T08:23:13.354Z,4.72
2022-11-29T08:25:41.552Z,4.76
2022-11-29T08:28:09.632Z,4.80
2022-11-29T08:30:37.390Z,4.83
2022-11-29T08:33:05.362Z,4.86
2022-11-29T08:35:35.605Z,4.90
2022-11-29T08:38:04.560Z,4.98
2022-11-29T08:40:32.038Z,5.03
2022-11-29T08:42:59.700Z,5.08
2022-11-29T08:45:27.525Z,5.13
2022-11-29T08:47:55.113Z,5.15
2022-11-29T08:50:22.893Z,5.14
2022-11-29T08:53:10.319Z,5.14
2022-11-29T08:55:42.337Z,5.17
2022-11-29T08:58:13.868Z,5.23
2022-11-29T09:00:46.007Z,5.28
2022-11-29T09:03:32.188Z,5.32
2022-11-29T09:06:13.409Z,5.32
2022-11-29T09:08:43.430Z,5.32
2022-11-29T09:11:15.965Z,5.37
2022-11-29T09:13:47.245Z,5.37
2022-11-29T09:16:17.911Z,5.42
2022-11-29T09:18:51.671Z,5.47
2022-11-29T09:21:20.137Z,5.52
2022-11-29T09:23:47.993Z,5.52
2022-11-29T09:26:19.899Z,5.51
2022-11-29T09:28:47.629Z,5.53
2022-11-29T09:31:16.973Z,5.57
2022-11-29T09:33:45.407Z,5.58
2022-11-29T09:36:14.007Z,5.58
2022-11-29T09:38:42.072Z,5.64
2022-11-29T09:41:37.386Z,5.72
2022-11-29T09:44:47.599Z,5.78
2022-11-29T09:47:57.595Z,5.80
2022-11-29T09:50:42.993Z,5.85
2022-11-29T09:53:53.338Z,5.88
2022-11-29T09:56:47.456Z,5.95
2022-11-29T09:59:33.625Z,5.97
2022-11-29T10:02:29.876Z,5.99
2022-11-29T10:05:09.915Z,6.02
2022-11-29T10:08:07.469Z,6.03
2022-11-29T10:10:47.001Z,6.09
2022-11-29T10:13:27.019Z,6.14
2022-11-29T10:16:01.376Z,6.20
2022-11-29T10:18:38.131Z,6.24
2022-11-29T10:21:23.952Z,6.24
2022-11-29T10:23:59.391Z,6.30
2022-11-29T10:26:33.581Z,6.38
2022-11-29T10:29:03.105Z,6.39
2022-11-29T10:31:43.624Z,6.46
2022-11-29T10:34:17.985Z,6.56
2022-11-29T10:36:59.982Z,6.62
2022-11-29T10:39:46.395Z,6.67
2022-11-29T10:42:43.669Z,6.69
2022-11-29T10:45:30.761Z,6.74
2022-11-29T10:48:34.617Z,6.80
2022-11-29T10:51:02.952Z,6.85
2022-11-29T10:53:37.583Z,6.86
2022-11-29T10:56:30.912Z,6.84
2022-11-29T10:59:07.930Z,6.77
2022-11-29T11:01:42.890Z,6.66
2022-11-29T11:04:29.370Z,6.45
2022-11-29T11:07:01.872Z,6.29
2022-11-29T11:09:46.807Z,6.20
2022-11-29T11:12:14.365Z,6.13
2022-11-29T11:14:43.878Z,6.14
2022-11-29T11:17:26.464Z,6.12
2022-11-29T11:20:04.184Z,6.11
2022-11-29T11:22:34.444Z,6.11
2022-11-29T11:25:31.664Z,6.11
2022-11-29T11:28:22.505Z,6.14
2022-11-29T11:30:54.333Z,6.15
2022-11-29T11:33:32.844Z,6.15
2022-11-29T11:36:27.555Z,6.15
2022-11-29T11:39:12.607Z,6.15
2022-11-29T11:42:03.834Z,6.14
2022-11-29T11:44:51.234Z,6.11
2022-11-29T11:47:21.784Z,6.05
2022-11-29T11:50:04.495Z,5.99
2022-11-29T11:52:53.644Z,5.95
2022-11-29T11:55:21.137Z,5.92
2022-11-29T11:58:10.243Z,5.93
2022-11-29T12:01:07.358Z,5.93
2022-11-29T12:04:05.528Z,5.96
2022-11-29T12:06:56.031Z,5.97
2022-11-29T12:09:43.328Z,6.01
2022-11-29T12:12:21.749Z,6.04
2022-11-29T12:14:59.768Z,6.02
2022-11-29T12:17:37.147Z,6.04
2022-11-29T12:20:08.406Z,6.02
2022-11-29T12:22:57.967Z,6.01
2022-11-29T12:25:54.762Z,6.01
2022-11-29T12:28:33.400Z,6.06
2022-11-29T12:31:56.708Z,6.08
2022-11-29T12:34:58.755Z,6.01
2022-11-29T12:37:44.869Z,5.92
2022-11-29T12:40:36.496Z,5.91
2022-11-29T12:43:39.788Z,5.93
2022-11-29T12:46:18.659Z,5.95
2022-11-29T12:49:02.968Z,5.99
2022-11-29T12:52:10.990Z,5.97
2022-11-29T12:54:38.747Z,5.91
2022-11-29T12:57:22.589Z,5.91
2022-11-29T13:00:09.468Z,5.92
2022-11-29T13:03:28.964Z,5.91
2022-11-29T13:06:26.031Z,5.86
2022-11-29T13:09:38.747Z,5.80
2022-11-29T13:12:18.188Z,5.76
2022-11-29T13:15:02.249Z,5.69
2022-11-29T13:18:03.080Z,5.66
2022-11-29T13:20:51.110Z,5.66
2022-11-29T13:24:14.488Z,5.64
2022-11-29T13:26:45.189Z,5.60
2022-11-29T13:29:17.848Z,5.57
2022-11-29T13:31:47.888Z,5.55
2022-11-29T13:34:47.515Z,5.52
2022-11-29T13:37:22.868Z,5.43
2022-11-29T13:40:09.556Z,5.45
2022-11-29T13:43:15.756Z,5.45
2022-11-29T13:46:24.801Z,5.44
2022-11-29T13:48:55.009Z,5.41
2022-11-29T13:51:30.607Z,5.38
2022-11-29T13:54:03.538Z,5.36
2022-11-29T13:56:48.188Z,5.32
2022-11-29T13:59:30.607Z,5.23
2022-11-29T14:01:59.199Z,5.18
2022-11-29T14:04:45.435Z,5.18
2022-11-29T14:07:21.214Z,5.13
2022-11-29T14:09:59.137Z,5.02
2022-11-29T14:12:53.216Z,5.02
2022-11-29T14:15:33.984Z,5.02
2022-11-29T14:18:08.710Z,5.06
2022-11-29T14:20:39.572Z,5.01
2022-11-29T14:23:07.531Z,4.85
2022-11-29T14:26:02.214Z,4.81
2022-11-29T14:28:38.998Z,4.78
2022-11-29T14:31:10.211Z,4.79
2022-11-29T14:33:46.721Z,4.79
2022-11-29T14:36:42.737Z,4.79
2022-11-29T14:39:48.647Z,4.73
2022-11-29T14:42:28.341Z,4.68
2022-11-29T14:45:04.600Z,4.70
2022-11-29T14:47:44.258Z,4.74
2022-11-29T14:50:32.779Z,4.70
2022-11-29T14:53:01.405Z,4.61
2022-11-29T14:55:35.204Z,4.64
2022-11-29T14:58:08.999Z,4.74
2022-11-29T15:01:06.403Z,4.87
2022-11-29T15:03:46.543Z,4.94
2022-11-29T15:06:30.301Z,4.88
2022-11-29T15:09:04.700Z,4.88
2022-11-29T15:11:52.678Z,4.86
2022-11-29T15:14:40.339Z,4.79
2022-11-29T15:17:27.480Z,4.73
2022-11-29T15:20:25.139Z,4.70
2022-11-29T15:23:00.757Z,4.69
2022-11-29T15:25:31.785Z,4.71
2022-11-29T15:28:06.025Z,4.77
2022-11-29T15:30:42.039Z,4.81
2022-11-29T15:33:24.132Z,4.79
2022-11-29T15:35:55.101Z,4.79
2022-11-29T15:38:24.347Z,4.79
2022-11-29T15:40:55.269Z,4.80
2022-11-29T15:43:34.815Z,4.76
2022-11-29T15:46:02.752Z,4.76
2022-11-29T15:48:33.522Z,4.73
2022-11-29T15:51:16.133Z,4.74
2022-11-29T15:54:11.277Z,4.75
2022-11-29T15:56:55.174Z,4.73
2022-11-29T15:59:46.192Z,4.78
2022-11-29T16:02:36.993Z,4.75
2022-11-29T16:05:15.740Z,4.77
2022-11-29T16:07:46.705Z,4.78
2022-11-29T16:10:22.724Z,4.74
2022-11-29T16:13:00.862Z,4.76
2022-11-29T16:15:39.038Z,4.74
2022-11-29T16:18:19.798Z,4.71
2022-11-29T16:21:00.711Z,4.69
2022-11-29T16:23:41.078Z,4.68
2022-11-29T16:26:28.458Z,4.62
2022-11-29T16:28:59.438Z,4.59
2022-11-29T16:31:36.891Z,4.60
2022-11-29T16:34:17.759Z,4.54
2022-11-29T16:36:45.738Z,4.52
2022-11-29T16:39:23.839Z,4.54
2022-11-29T16:42:14.539Z,4.51
2022-11-29T16:44:45.255Z,4.49
2022-11-29T16:47:29.422Z,4.47
2022-11-29T16:50:03.228Z,4.44
2022-11-29T16:52:34.259Z,4.43
2022-11-29T16:55:01.845Z,4.41
2022-11-29T16:57:31.540Z,4.38
2022-11-29T16:59:59.307Z,4.32
2022-11-29T17:02:32.473Z,4.30
2022-11-29T17:05:45.765Z,4.27
2022-11-29T17:08:15.340Z,4.21
2022-11-29T17:10:43.087Z,4.17
2022-11-29T17:13:13.948Z,4.16
2022-11-29T17:15:41.820Z,4.18
2022-11-29T17:18:09.767Z,4.20
2022-11-29T17:20:37.854Z,4.18
2022-11-29T17:23:06.118Z,4.19
2022-11-29T17:25:33.683Z,4.23
2022-11-29T17:28:01.448Z,4.20
2022-11-29T17:30:29.829Z,4.15
2022-11-29T17:32:57.277Z,4.11
2022-11-29T17:35:24.877Z,4.11
2022-11-29T17:37:53.248Z,4.08
2022-11-29T17:40:21.080Z,4.09
2022-11-29T17:42:49.058Z,4.10
2022-11-29T17:45:18.865Z,4.09
2022-11-29T17:47:46.736Z,4.07
2022-11-29T17:50:14.425Z,4.09
2022-11-29T17:52:42.066Z,4.07
2022-11-29T17:55:10.325Z,4.03
2022-11-29T17:57:37.799Z,3.96
2022-11-29T18:00:08.476Z,3.85
2022-11-29T18:02:36.179Z,3.75
2022-11-29T18:05:04.365Z,3.70
2022-11-29T18:07:32.058Z,3.64
2022-11-29T18:09:59.895Z,3.58
2022-11-29T18:12:27.358Z,3.53
2022-11-29T18:14:55.016Z,3.46
2022-11-29T18:17:23.242Z,3.41
2022-11-29T18:19:50.635Z,3.35
2022-11-29T18:22:18.428Z,3.27
2022-11-29T18:24:46.283Z,3.15
2022-11-29T18:27:13.907Z,3.05
2022-11-29T18:29:41.637Z,2.98
2022-11-29T18:32:09.475Z,2.92
2022-11-29T18:34:36.829Z,2.85
2022-11-29T18:37:04.681Z,2.77
2022-11-29T18:39:32.204Z,2.70
2022-11-29T18:42:00.039Z,2.60
2022-11-29T18:44:38.454Z,2.51
2022-11-29T18:47:13.077Z,2.40
2022-11-29T18:49:40.916Z,2.31
2022-11-29T18:52:08.986Z,2.27
2022-11-29T18:54:37.101Z,2.22
2022-11-29T18:57:04.725Z,2.18
2022-11-29T18:59:32.500Z,2.13
2022-11-29T19:02:01.007Z,2.09
2022-11-29T19:04:29.059Z,2.00
2022-11-29T19:06:56.721Z,1.93
2022-11-29T19:09:24.678Z,1.83
2022-11-29T19:11:52.662Z,1.74
2022-11-29T19:14:21.637Z,1.67
2022-11-29T19:16:50.120Z,1.63
2022-11-29T19:19:20.857Z,1.67
2022-11-29T19:21:48.918Z,1.72
2022-11-29T19:24:18.851Z,1.77
2022-11-29T19:26:48.063Z,1.77
2022-11-29T19:29:16.838Z,1.76
2022-11-29T19:31:44.921Z,1.81
2022-11-29T19:34:13.300Z,1.87
2022-11-29T19:36:45.451Z,1.89
2022-11-29T19:39:15.801Z,1.93
2022-11-29T19:41:47.790Z,1.95
2022-11-29T19:44:15.836Z,1.94
2022-11-29T19:46:48.403Z,1.91
2022-11-29T19:49:16.978Z,1.92
2022-11-29T19:51:44.640Z,1.89
2022-11-29T19:54:12.804Z,1.88
2022-11-29T19:56:40.479Z,1.85
2022-11-29T19:59:09.169Z,1.84
2022-11-29T20:01:42.653Z,1.82
2022-11-29T20:04:13.377Z,1.80
2022-11-29T20:06:41.582Z,1.79
2022-11-29T20:09:10.571Z,1.75
2022-11-29T20:11:38.539Z,1.72
2022-11-29T20:14:08.042Z,1.71
2022-11-29T20:16:38.707Z,1.68
2022-11-29T20:19:13.498Z,1.66
2022-11-29T20:21:48.578Z,1.62
2022-11-29T20:24:17.618Z,1.61
2022-11-29T20:26:47.402Z,1.62
2022-11-29T20:29:16.947Z,1.61
2022-11-29T20:31:50.257Z,1.58
2022-11-29T20:34:20.179Z,1.55
2022-11-29T20:37:53.274Z,1.52
2022-11-29T20:40:32.088Z,1.49
2022-11-29T20:43:20.333Z,1.45
2022-11-29T20:45:48.308Z,1.45
2022-11-29T20:48:22.832Z,1.45
2022-11-29T20:51:10.673Z,1.41
2022-11-29T20:53:44.207Z,1.38
2022-11-29T20:56:12.642Z,1.35
2022-11-29T20:58:40.422Z,1.31
2022-11-29T21:01:08.395Z,1.26
2022-11-29T21:03:36.530Z,1.21
2022-11-29T21:06:06.613Z,1.16
2022-11-29T21:08:34.950Z,1.13
2022-11-29T21:11:10.122Z,1.09
2022-11-29T21:13:38.663Z,1.04
2022-11-29T21:16:07.391Z,0.98
2022-11-29T21:18:35.944Z,0.94
2022-11-29T21:21:44.860Z,0.91
2022-11-29T21:24:54.722Z,0.87
2022-11-29T21:27:34.603Z,0.84
2022-11-29T21:30:06.060Z,0.82
2022-11-29T21:32:34.500Z,0.81
2022-11-29T21:35:02.092Z,0.77
2022-11-29T21:37:31.668Z,0.74
2022-11-29T21:39:59.637Z,0.72
2022-11-29T21:42:27.929Z,0.69
2022-11-29T21:44:55.775Z,0.67
2022-11-29T21:47:23.754Z,0.63
2022-11-29T21:49:52.632Z,0.60
2022-11-29T21:52:22.716Z,0.59
2022-11-29T21:54:50.838Z,0.58
2022-11-29T21:57:18.598Z,0.56
2022-11-29T21:59:46.476Z,0.54
2022-11-29T22:02:14.354Z,0.50
2022-11-29T22:04:42.318Z,0.45
2022-11-29T22:07:09.969Z,0.44
2022-11-29T22:09:37.630Z,0.45
2022-11-29T22:12:25.855Z,0.45
2022-11-29T22:14:54.150Z,0.42
2022-11-29T22:17:21.811Z,0.40
2022-11-29T22:19:49.461Z,0.35
2022-11-29T22:22:17.247Z,0.33
2022-11-29T22:24:45.942Z,0.32
2022-11-29T22:27:13.902Z,0.30
2022-11-29T22:29:41.660Z,0.27
2022-11-29T22:32:09.329Z,0.25
2022-11-29T22:34:36.980Z,0.24
2022-11-29T22:37:04.652Z,0.22
2022-11-29T22:39:32.620Z,0.20
2022-11-29T22:42:00.184Z,0.18
2022-11-29T22:44:28.053Z,0.16
2022-11-29T22:46:56.049Z,0.13
2022-11-29T22:49:23.783Z,0.10
2022-11-29T22:51:52.279Z,0.07
2022-11-29T22:54:20.267Z,0.05
2022-11-29T22:56:48.101Z,0.04
2022-11-29T22:59:15.840Z,0.00
2022-11-29T23:01:43.386Z,-0.01
2022-11-29T23:04:13.169Z,-0.01
2022-11-29T23:06:44.263Z,-0.02
2022-11-29T23:09:20.920Z,-0.04
2022-11-29T23:11:56.014Z,-0.05
2022-11-29T23:14:24.262Z,-0.04
2022-11-29T23:16:52.319Z,-0.03
2022-11-29T23:19:20.367Z,-0.04
2022-11-29T23:21:47.870Z,-0.05
2022-11-29T23:24:16.069Z,-0.07
2022-11-29T23:26:47.084Z,-0.06
2022-11-29T23:29:19.508Z,-0.09
2022-11-29T23:31:47.537Z,-0.09
2022-11-29T23:34:15.387Z,-0.15
2022-11-29T23:36:45.739Z,-0.15
2022-11-29T23:39:15.792Z,-0.15
2022-11-29T23:41:43.160Z,-0.19
2022-11-29T23:44:10.815Z,-0.19
2022-11-29T23:46:38.294Z,-0.17
2022-11-29T23:49:05.699Z,-0.18
2022-11-29T23:51:33.065Z,-0.21
2022-11-29T23:54:00.443Z,-0.21
2022-11-29T23:56:27.866Z,-0.22
2022-11-29T23:58:55.259Z,-0.23
